Shanghai, China
Current Conditions -  °F | °C
As of 11:00 PM on Friday 19 Dec 2014 (Local Time) from ZSSS Reporting Station
Haze Haze  
Wind Chill: 37°   Ceiling: Unl
Heat Index: 41°   Visibility: 2.5mi
Dew Point: 36°   Wind: 7mph
Humidity: 81%   Direction: 270°W
Pressure: 30.27"   Gusts: NA
Location:  31.23°N, 121.47°E
Report Text: ZSSS 191500Z 27003MPS 4000 BR NSC 05/02 Q1025 NOSIG
Loading
Personal Weather Stations






























Interactive Weather Map New forecast layout! Learn more

10-Day Weather Forecast

Advertisements
Track Severe Weather on mobile